Time,TemperatureF,DewpointF,PressureIn,WindDirection,WindDirectionDegrees,WindSpeedMPH,WindSpeedGustMPH,Humidity,HourlyPrecipIn,Conditions,Clouds,dailyrainin,SoftwareType,DateUTC
2013-06-08 00:01:00,58.9,57.5,29.57,North,357,6.7,11.5,95,0.07,RA,,0.00,WeatherDisplay:10.37,2013-06-08 04:01:00,
2013-06-08 00:02:00,58.9,57.5,29.57,North,0,2.5,5.8,95,0.07,RA,,0.00,WeatherDisplay:10.37,2013-06-08 04:02:00,
2013-06-08 00:08:00,58.7,57.3,29.57,North,354,5.3,7.0,95,0.10,RA,,0.05,WeatherDisplay:10.37,2013-06-08 04:08:00,
2013-06-08 00:13:00,58.6,57.2,29.57,North,352,5.6,9.2,95,0.16,RA,,0.10,WeatherDisplay:10.37,2013-06-08 04:13:00,
2013-06-08 00:18:00,58.3,56.9,29.57,North,1,5.9,11.5,95,0.19,RA,,0.13,WeatherDisplay:10.37,2013-06-08 04:18:00,
2013-06-08 00:23:00,58.1,56.7,29.56,North,0,3.4,5.0,95,0.20,RA,,0.14,WeatherDisplay:10.37,2013-06-08 04:23:00,
2013-06-08 00:28:00,58.1,56.7,29.56,North,0,5.3,5.3,95,0.20,RA,,0.15,WeatherDisplay:10.37,2013-06-08 04:28:00,
2013-06-08 00:33:00,58.0,56.6,29.57,North,356,1.4,3.5,95,0.20,RA,,0.16,WeatherDisplay:10.37,2013-06-08 04:33:00,
2013-06-08 00:39:00,58.0,56.6,29.57,North,0,1.2,6.0,95,0.19,RA,,0.16,WeatherDisplay:10.37,2013-06-08 04:39:00,
2013-06-08 00:44:00,57.8,56.4,29.57,North,353,2.6,6.0,95,0.19,CLR,,0.16,WeatherDisplay:10.37,2013-06-08 04:44:00,
2013-06-08 00:49:00,57.6,56.2,29.56,North,357,5.2,6.0,95,0.19,CLR,,0.17,WeatherDisplay:10.37,2013-06-08 04:49:00,
2013-06-08 00:54:00,57.5,56.1,29.56,North,0,3.1,7.0,95,0.18,RA,,0.17,WeatherDisplay:10.37,2013-06-08 04:54:00,
2013-06-08 01:00:00,57.3,55.9,29.57,North,1,1.7,4.0,95,0.17,,,0.17,WeatherDisplay:10.37,2013-06-08 05:00:00,
2013-06-08 01:05:00,57.3,55.9,29.56,NNE,32,2.4,8.1,95,0.14,CLR,,0.17,WeatherDisplay:10.37,2013-06-08 05:05:00,
2013-06-08 01:10:00,57.2,55.8,29.57,NE,54,4.9,10.4,95,0.11,CLR,,0.17,WeatherDisplay:10.37,2013-06-08 05:10:00,
2013-06-08 01:15:00,57.0,55.6,29.57,North,1,3.0,6.9,95,0.05,CLR,,0.17,WeatherDisplay:10.37,2013-06-08 05:15:00,
2013-06-08 01:20:00,56.9,55.5,29.57,North,357,2.7,10.4,95,0.03,CLR,,0.17,WeatherDisplay:10.37,2013-06-08 05:20:00,
2013-06-08 01:25:00,56.7,55.3,29.57,North,354,0.8,6.9,95,0.02,CLR,,0.17,WeatherDisplay:10.37,2013-06-08 05:25:00,
2013-06-08 01:30:00,56.7,55.3,29.57,North,3,9.7,12.0,95,0.02,CLR,,0.17,WeatherDisplay:10.37,2013-06-08 05:30:00,
2013-06-08 01:35:00,56.6,55.2,29.57,NW,322,4.1,4.1,95,0.01,CLR,,0.17,WeatherDisplay:10.37,2013-06-08 05:35:00,
2013-06-08 01:40:00,56.6,55.2,29.57,North,0,4.3,11.5,95,0.01,CLR,,0.17,WeatherDisplay:10.37,2013-06-08 05:40:00,
2013-06-08 01:45:00,56.5,55.1,29.57,North,0,8.4,16.1,95,0.02,RA,,0.18,WeatherDisplay:10.37,2013-06-08 05:45:00,
2013-06-08 01:51:00,56.5,55.1,29.57,North,354,10.8,15.0,95,0.01,RA,,0.18,WeatherDisplay:10.37,2013-06-08 05:51:00,
2013-06-08 01:56:00,56.5,55.1,29.57,North,0,7.2,11.5,95,0.01,CLR,,0.18,WeatherDisplay:10.37,2013-06-08 05:56:00,
2013-06-08 02:01:00,56.3,54.9,29.57,North,0,11.1,13.0,95,0.01,CLR,,0.18,WeatherDisplay:10.37,2013-06-08 06:01:00,
2013-06-08 02:06:00,56.2,54.5,29.57,North,354,13.3,18.4,94,0.01,CLR,,0.18,WeatherDisplay:10.37,2013-06-08 06:06:00,
2013-06-08 02:11:00,56.3,54.6,29.57,North,4,6.4,13.8,94,0.01,CLR,,0.18,WeatherDisplay:10.37,2013-06-08 06:11:00,
2013-06-08 02:16:00,56.3,54.6,29.57,NNW,347,7.2,17.3,94,0.01,CLR,,0.18,WeatherDisplay:10.37,2013-06-08 06:16:00,
2013-06-08 02:22:00,56.3,54.6,29.57,North,359,14.0,21.9,94,0.01,CLR,,0.18,WeatherDisplay:10.37,2013-06-08 06:22:00,
2013-06-08 02:27:00,56.5,54.8,29.58,North,0,5.0,7.0,94,0.01,CLR,,0.18,WeatherDisplay:10.37,2013-06-08 06:27:00,
2013-06-08 02:32:00,56.5,54.8,29.58,North,0,6.8,9.2,94,0.01,CLR,,0.18,WeatherDisplay:10.37,2013-06-08 06:32:00,
2013-06-08 02:37:00,56.5,54.8,29.58,North,0,12.9,19.6,94,0.01,CLR,,0.18,WeatherDisplay:10.37,2013-06-08 06:37:00,
2013-06-08 02:42:00,56.5,54.8,29.58,North,4,8.2,12.0,94,0.01,CLR,,0.18,WeatherDisplay:10.37,2013-06-08 06:42:00,
2013-06-08 02:47:00,56.5,54.8,29.59,North,3,5.7,13.8,94,0.00,CLR,,0.18,WeatherDisplay:10.37,2013-06-08 06:47:00,
2013-06-08 02:52:00,56.6,54.9,29.59,North,11,6.5,8.1,94,0.00,CLR,,0.18,WeatherDisplay:10.37,2013-06-08 06:52:00,
2013-06-08 02:58:00,56.6,54.9,29.59,North,357,0.0,0.0,94,0.00,CLR,,0.18,WeatherDisplay:10.37,2013-06-08 06:58:00,
2013-06-08 03:03:00,56.7,55.0,29.58,North,1,2.7,12.0,94,0.00,CLR,,0.18,WeatherDisplay:10.37,2013-06-08 07:03:00,
2013-06-08 03:08:00,56.7,55.0,29.58,North,357,2.3,10.4,94,0.00,CLR,,0.18,WeatherDisplay:10.37,2013-06-08 07:08:00,
2013-06-08 03:14:00,56.7,55.3,29.60,North,357,0.5,7.0,95,0.00,CLR,,0.18,WeatherDisplay:10.37,2013-06-08 07:14:00,
2013-06-08 03:19:00,56.7,55.3,29.60,NNE,13,0.0,2.3,95,0.00,CLR,,0.18,WeatherDisplay:10.37,2013-06-08 07:19:00,
2013-06-08 03:24:00,56.7,55.3,29.60,North,6,0.8,11.5,95,0.00,CLR,,0.18,WeatherDisplay:10.37,2013-06-08 07:24:00,
2013-06-08 03:29:00,56.7,55.3,29.60,NNE,31,0.1,1.2,95,0.00,CLR,,0.18,WeatherDisplay:10.37,2013-06-08 07:29:00,
2013-06-08 03:34:00,56.7,55.3,29.60,North,356,3.4,11.5,95,0.00,CLR,,0.18,WeatherDisplay:10.37,2013-06-08 07:34:00,
2013-06-08 03:39:00,56.7,55.0,29.60,North,10,4.2,6.0,94,0.00,CLR,,0.18,WeatherDisplay:10.37,2013-06-08 07:39:00,
2013-06-08 03:45:00,56.9,55.2,29.60,NNE,23,5.2,8.1,94,0.00,CLR,,0.18,WeatherDisplay:10.37,2013-06-08 07:45:00,
2013-06-08 03:50:00,56.9,55.2,29.59,NNE,23,4.7,11.5,94,0.00,CLR,,0.18,WeatherDisplay:10.37,2013-06-08 07:50:00,
2013-06-08 03:55:00,56.9,55.2,29.59,NNE,16,0.0,1.2,94,0.00,CLR,,0.18,WeatherDisplay:10.37,2013-06-08 07:55:00,
2013-06-08 04:01:00,56.9,54.9,29.60,North,0,0.1,1.2,93,0.00,CLR,,0.18,WeatherDisplay:10.37,2013-06-08 08:01:00,
2013-06-08 04:06:00,56.9,54.9,29.61,North,4,0.0,0.0,93,0.00,CLR,,0.18,WeatherDisplay:10.37,2013-06-08 08:06:00,
2013-06-08 04:11:00,56.9,54.9,29.61,North,0,0.2,1.2,93,0.00,CLR,,0.18,WeatherDisplay:10.37,2013-06-08 08:11:00,
2013-06-08 04:16:00,57.0,55.0,29.62,NNW,346,0.0,0.0,93,0.00,CLR,,0.18,WeatherDisplay:10.37,2013-06-08 08:16:00,
2013-06-08 04:21:00,57.2,55.2,29.62,NNW,343,0.0,0.0,93,0.00,CLR,,0.18,WeatherDisplay:10.37,2013-06-08 08:21:00,
2013-06-08 04:27:00,57.2,55.2,29.63,NNW,329,0.0,0.0,93,0.00,CLR,,0.18,WeatherDisplay:10.37,2013-06-08 08:27:00,
2013-06-08 04:32:00,57.2,55.2,29.63,North,0,0.0,0.0,93,0.00,CLR,,0.18,WeatherDisplay:10.37,2013-06-08 08:32:00,
2013-06-08 04:37:00,57.2,55.2,29.63,North,10,0.0,0.0,93,0.00,CLR,,0.18,WeatherDisplay:10.37,2013-06-08 08:37:00,
2013-06-08 04:42:00,57.2,55.2,29.63,NNW,329,0.0,0.0,93,0.00,CLR,,0.18,WeatherDisplay:10.37,2013-06-08 08:42:00,
2013-06-08 04:47:00,57.3,55.3,29.64,NW,325,0.0,0.0,93,0.00,CLR,,0.18,WeatherDisplay:10.37,2013-06-08 08:47:00,
2013-06-08 04:52:00,57.3,55.3,29.64,NW,311,0.0,0.0,93,0.00,CLR,,0.18,WeatherDisplay:10.37,2013-06-08 08:52:00,
2013-06-08 04:57:00,57.5,55.5,29.64,NW,311,0.0,0.0,93,0.00,CLR,,0.18,WeatherDisplay:10.37,2013-06-08 08:57:00,
2013-06-08 05:02:00,57.5,55.5,29.65,NW,311,0.0,0.0,93,0.00,CLR,,0.18,WeatherDisplay:10.37,2013-06-08 09:02:00,
2013-06-08 05:07:00,57.5,55.5,29.66,NW,311,0.0,0.0,93,0.00,CLR,,0.18,WeatherDisplay:10.37,2013-06-08 09:07:00,
2013-06-08 05:12:00,57.5,55.8,29.66,NW,311,0.0,0.0,94,0.00,CLR,,0.18,WeatherDisplay:10.37,2013-06-08 09:12:00,
2013-06-08 05:17:00,57.5,55.8,29.67,NW,311,0.0,0.0,94,0.00,CLR,,0.18,WeatherDisplay:10.37,2013-06-08 09:17:00,
2013-06-08 05:22:00,57.6,55.9,29.66,NW,311,0.0,0.0,94,0.00,CLR,,0.18,WeatherDisplay:10.37,2013-06-08 09:22:00,
2013-06-08 05:27:00,57.6,55.9,29.67,NW,311,0.0,0.0,94,0.00,CLR,,0.18,WeatherDisplay:10.37,2013-06-08 09:27:00,
2013-06-08 05:32:00,57.6,55.9,29.67,NW,311,0.0,0.0,94,0.00,CLR,,0.18,WeatherDisplay:10.37,2013-06-08 09:32:00,
2013-06-08 05:37:00,57.6,55.9,29.67,NW,311,0.0,0.0,94,0.00,CLR,,0.18,WeatherDisplay:10.37,2013-06-08 09:37:00,
2013-06-08 05:42:00,57.6,55.9,29.67,NW,311,0.0,0.0,94,0.00,CLR,,0.18,WeatherDisplay:10.37,2013-06-08 09:42:00,
2013-06-08 05:47:00,57.6,55.9,29.67,NW,311,0.0,0.0,94,0.00,CLR,,0.18,WeatherDisplay:10.37,2013-06-08 09:47:00,
2013-06-08 05:52:00,57.6,55.9,29.68,WSW,253,0.0,0.0,94,0.00,CLR,,0.18,WeatherDisplay:10.37,2013-06-08 09:52:00,
2013-06-08 05:57:00,57.6,55.9,29.68,SSW,213,0.0,0.0,94,0.00,CLR,,0.18,WeatherDisplay:10.37,2013-06-08 09:57:00,
2013-06-08 06:02:00,57.8,56.4,29.69,SW,215,0.0,0.0,95,0.00,CLR,,0.18,WeatherDisplay:10.37,2013-06-08 10:02:00,
2013-06-08 06:07:00,57.8,56.1,29.69,SW,215,0.0,0.0,94,0.00,CLR,,0.18,WeatherDisplay:10.37,2013-06-08 10:07:00,
2013-06-08 06:12:00,57.8,56.1,29.70,SW,215,0.0,0.0,94,0.00,CLR,,0.18,WeatherDisplay:10.37,2013-06-08 10:12:00,
2013-06-08 06:17:00,58.0,56.6,29.70,SW,215,0.0,0.0,95,0.00,CLR,,0.18,WeatherDisplay:10.37,2013-06-08 10:17:00,
2013-06-08 06:22:00,58.0,56.6,29.70,SW,215,0.0,0.0,95,0.00,CLR,,0.18,WeatherDisplay:10.37,2013-06-08 10:22:00,
2013-06-08 06:28:00,58.0,56.6,29.70,SW,215,0.0,0.0,95,0.00,CLR,,0.18,WeatherDisplay:10.37,2013-06-08 10:28:00,
2013-06-08 06:33:00,58.0,56.6,29.71,SW,215,0.0,0.0,95,0.00,CLR,,0.18,WeatherDisplay:10.37,2013-06-08 10:33:00,
2013-06-08 06:38:00,58.0,56.6,29.71,SSW,213,0.0,0.0,95,0.00,CLR,,0.18,WeatherDisplay:10.37,2013-06-08 10:38:00,
2013-06-08 06:43:00,58.1,56.7,29.72,SSW,213,0.0,0.0,95,0.00,CLR,,0.18,WeatherDisplay:10.37,2013-06-08 10:43:00,
2013-06-08 06:48:00,58.4,57.0,29.72,SW,216,0.0,0.0,95,0.00,CLR,,0.18,WeatherDisplay:10.37,2013-06-08 10:48:00,
2013-06-08 06:54:00,58.6,57.2,29.73,SSW,192,0.0,0.0,95,0.00,CLR,,0.18,WeatherDisplay:10.37,2013-06-08 10:54:00,
2013-06-08 06:59:00,58.4,57.0,29.73,South,184,0.0,0.0,95,0.00,CLR,,0.18,WeatherDisplay:10.37,2013-06-08 10:59:00,
2013-06-08 07:04:00,58.4,57.0,29.73,SSW,192,0.0,0.0,95,0.00,CLR,,0.18,WeatherDisplay:10.37,2013-06-08 11:04:00,
2013-06-08 07:09:00,58.6,57.2,29.74,SSW,193,0.0,0.0,95,0.00,CLR,,0.18,WeatherDisplay:10.37,2013-06-08 11:09:00,
2013-06-08 07:14:00,58.9,57.5,29.74,SSW,196,0.0,0.0,95,0.00,CLR,,0.18,WeatherDisplay:10.37,2013-06-08 11:14:00,
2013-06-08 07:19:00,59.0,57.9,29.74,SSW,198,0.0,0.0,96,0.00,CLR,,0.18,WeatherDisplay:10.37,2013-06-08 11:19:00,
2013-06-08 07:24:00,59.2,58.1,29.74,SSW,198,0.0,0.0,96,0.00,CLR,,0.18,WeatherDisplay:10.37,2013-06-08 11:24:00,
2013-06-08 07:30:00,59.6,58.5,29.74,SSW,206,0.0,0.0,96,0.00,CLR,,0.18,WeatherDisplay:10.37,2013-06-08 11:30:00,
2013-06-08 07:35:00,59.9,58.8,29.75,SSW,208,0.0,0.0,96,0.00,CLR,,0.18,WeatherDisplay:10.37,2013-06-08 11:35:00,
2013-06-08 07:40:00,59.9,58.5,29.75,SSW,199,0.0,0.0,95,0.00,CLR,,0.18,WeatherDisplay:10.37,2013-06-08 11:40:00,
2013-06-08 07:45:00,60.2,58.8,29.76,SSW,199,0.0,0.0,95,0.00,CLR,,0.18,WeatherDisplay:10.37,2013-06-08 11:45:00,
2013-06-08 07:50:00,60.5,59.1,29.76,SSW,205,0.0,0.0,95,0.00,CLR,,0.18,WeatherDisplay:10.37,2013-06-08 11:50:00,
2013-06-08 07:56:00,61.0,59.9,29.76,SSW,205,0.0,0.0,96,0.00,CLR,,0.18,WeatherDisplay:10.37,2013-06-08 11:56:00,
2013-06-08 08:01:00,61.3,59.9,29.75,SSW,212,0.3,0.0,95,0.00,CLR,,0.18,WeatherDisplay:10.37,2013-06-08 12:01:00,
2013-06-08 08:06:00,61.5,60.1,29.76,West,275,0.0,1.2,95,0.00,CLR,,0.18,WeatherDisplay:10.37,2013-06-08 12:06:00,
2013-06-08 08:12:00,61.8,60.1,29.76,SW,227,0.2,1.2,94,0.00,CLR,,0.18,WeatherDisplay:10.37,2013-06-08 12:12:00,
2013-06-08 08:17:00,62.1,60.4,29.76,West,264,0.1,2.3,94,0.00,CLR,,0.18,WeatherDisplay:10.37,2013-06-08 12:17:00,
2013-06-08 08:22:00,62.3,60.2,29.77,SSW,196,0.0,1.2,93,0.00,CLR,,0.18,WeatherDisplay:10.37,2013-06-08 12:22:00,
2013-06-08 08:27:00,62.3,59.9,29.77,SSW,202,0.6,1.2,92,0.00,CLR,,0.18,WeatherDisplay:10.37,2013-06-08 12:27:00,
2013-06-08 08:33:00,62.6,60.2,29.77,WSW,253,0.2,1.2,92,0.00,CLR,,0.18,WeatherDisplay:10.37,2013-06-08 12:33:00,
2013-06-08 08:38:00,62.9,60.2,29.77,NW,306,0.8,2.3,91,0.00,CLR,,0.18,WeatherDisplay:10.37,2013-06-08 12:38:00,
2013-06-08 08:43:00,63.2,60.5,29.77,SW,234,0.1,1.2,91,0.00,CLR,,0.18,WeatherDisplay:10.37,2013-06-08 12:43:00,
2013-06-08 08:48:00,63.5,60.5,29.78,SW,223,0.2,1.2,90,0.00,CLR,,0.18,WeatherDisplay:10.37,2013-06-08 12:48:00,
2013-06-08 08:53:00,64.0,60.7,29.78,SW,219,1.8,4.6,89,0.00,CLR,,0.18,WeatherDisplay:10.37,2013-06-08 12:53:00,
2013-06-08 08:58:00,64.0,60.1,29.78,NW,305,3.1,10.4,87,0.00,CLR,,0.18,WeatherDisplay:10.37,2013-06-08 12:58:00,
2013-06-08 09:03:00,64.2,60.2,29.78,WSW,253,0.5,2.3,87,0.00,CLR,,0.18,WeatherDisplay:10.37,2013-06-08 13:03:00,
2013-06-08 09:08:00,64.7,60.7,29.78,West,280,0.1,2.3,87,0.00,CLR,,0.18,WeatherDisplay:10.37,2013-06-08 13:08:00,
2013-06-08 09:13:00,64.8,59.9,29.79,NNW,330,3.3,6.9,84,0.00,CLR,,0.18,WeatherDisplay:10.37,2013-06-08 13:13:00,
2013-06-08 09:19:00,65.0,60.0,29.79,NW,313,3.6,5.0,84,0.00,CLR,,0.18,WeatherDisplay:10.37,2013-06-08 13:19:00,
2013-06-08 09:24:00,64.8,59.9,29.79,NW,306,1.5,5.0,84,0.00,CLR,,0.18,WeatherDisplay:10.37,2013-06-08 13:24:00,
2013-06-08 09:29:00,65.0,60.0,29.79,WNW,294,2.7,5.8,84,0.00,CLR,,0.18,WeatherDisplay:10.37,2013-06-08 13:29:00,
2013-06-08 09:34:00,65.0,59.7,29.80,WNW,284,1.9,4.6,83,0.00,CLR,,0.18,WeatherDisplay:10.37,2013-06-08 13:34:00,
2013-06-08 09:39:00,65.0,59.7,29.80,WNW,294,1.8,2.3,83,0.00,CLR,,0.18,WeatherDisplay:10.37,2013-06-08 13:39:00,
2013-06-08 09:44:00,65.3,60.3,29.80,NW,305,0.9,3.5,84,0.00,CLR,,0.18,WeatherDisplay:10.37,2013-06-08 13:44:00,
2013-06-08 09:49:00,65.5,59.9,29.80,West,268,2.6,4.6,82,0.00,CLR,,0.18,WeatherDisplay:10.37,2013-06-08 13:49:00,
2013-06-08 09:54:00,65.6,59.6,29.80,NW,315,2.6,6.9,81,0.00,CLR,,0.18,WeatherDisplay:10.37,2013-06-08 13:54:00,
2013-06-08 09:59:00,65.8,59.8,29.80,West,281,2.9,6.9,81,0.00,CLR,,0.18,WeatherDisplay:10.37,2013-06-08 13:59:00,
2013-06-08 10:04:00,66.1,60.1,29.80,WNW,298,3.0,6.9,81,0.00,CLR,,0.18,WeatherDisplay:10.37,2013-06-08 14:04:00,
2013-06-08 10:09:00,66.4,60.0,29.81,SW,236,0.3,1.2,80,0.00,CLR,,0.18,WeatherDisplay:10.37,2013-06-08 14:09:00,
2013-06-08 10:14:00,66.9,60.5,29.81,West,271,0.1,3.5,80,0.00,CLR,,0.18,WeatherDisplay:10.37,2013-06-08 14:14:00,
2013-06-08 10:19:00,67.1,60.4,29.81,WNW,289,2.5,3.5,79,0.00,CLR,,0.18,WeatherDisplay:10.37,2013-06-08 14:19:00,
2013-06-08 10:24:00,67.1,60.0,29.81,NW,325,2.4,3.5,78,0.00,CLR,,0.18,WeatherDisplay:10.37,2013-06-08 14:24:00,
2013-06-08 10:30:00,67.4,60.3,29.81,SW,226,1.5,3.5,78,0.00,CLR,,0.18,WeatherDisplay:10.37,2013-06-08 14:30:00,
2013-06-08 10:35:00,68.1,61.3,29.81,WSW,258,0.1,1.2,79,0.00,CLR,,0.18,WeatherDisplay:10.37,2013-06-08 14:35:00,
2013-06-08 10:40:00,68.3,60.4,29.81,West,270,1.4,3.5,76,0.00,CLR,,0.18,WeatherDisplay:10.37,2013-06-08 14:40:00,
2013-06-08 10:45:00,68.3,60.8,29.82,WNW,302,2.2,5.8,77,0.00,CLR,,0.18,WeatherDisplay:10.37,2013-06-08 14:45:00,
2013-06-08 10:50:00,68.8,61.7,29.82,West,271,0.6,1.2,78,0.00,CLR,,0.18,WeatherDisplay:10.37,2013-06-08 14:50:00,
2013-06-08 10:55:00,68.9,61.4,29.82,WNW,299,3.7,5.8,77,0.00,CLR,,0.18,WeatherDisplay:10.37,2013-06-08 14:55:00,
2013-06-08 11:01:00,68.4,60.5,29.82,West,277,2.2,6.9,76,0.00,CLR,,0.18,WeatherDisplay:10.37,2013-06-08 15:01:00,
2013-06-08 11:06:00,68.3,60.8,29.83,SW,223,3.6,4.6,77,0.00,CLR,,0.18,WeatherDisplay:10.37,2013-06-08 15:06:00,
2013-06-08 11:11:00,68.4,60.9,29.83,WSW,251,1.8,3.5,77,0.00,CLR,,0.18,WeatherDisplay:10.37,2013-06-08 15:11:00,
2013-06-08 11:17:00,68.6,60.7,29.83,WNW,296,3.6,5.8,76,0.00,CLR,,0.18,WeatherDisplay:10.37,2013-06-08 15:17:00,
2013-06-08 11:22:00,68.4,60.9,29.83,NW,304,0.8,2.3,77,0.00,CLR,,0.18,WeatherDisplay:10.37,2013-06-08 15:22:00,
2013-06-08 11:27:00,68.6,61.1,29.83,WNW,294,1.2,3.5,77,0.00,CLR,,0.18,WeatherDisplay:10.37,2013-06-08 15:27:00,
2013-06-08 11:32:00,68.8,61.7,29.83,WSW,244,0.8,2.3,78,0.00,CLR,,0.18,WeatherDisplay:10.37,2013-06-08 15:32:00,
2013-06-08 11:37:00,68.8,60.9,29.83,WSW,241,2.2,4.6,76,0.00,CLR,,0.18,WeatherDisplay:10.37,2013-06-08 15:37:00,
2013-06-08 11:42:00,68.8,60.9,29.83,WSW,254,1.8,5.8,76,0.00,CLR,,0.18,WeatherDisplay:10.37,2013-06-08 15:42:00,
2013-06-08 11:47:00,68.9,61.4,29.84,WSW,244,1.3,4.6,77,0.00,CLR,,0.18,WeatherDisplay:10.37,2013-06-08 15:47:00,
2013-06-08 11:52:00,69.3,61.0,29.84,NNW,337,1.1,3.5,75,0.00,CLR,,0.18,WeatherDisplay:10.37,2013-06-08 15:52:00,
2013-06-08 11:58:00,69.3,61.4,29.84,South,189,1.0,3.5,76,0.00,CLR,,0.18,WeatherDisplay:10.37,2013-06-08 15:58:00,
2013-06-08 12:03:00,69.3,61.8,29.85,SW,232,0.4,1.2,77,0.00,CLR,,0.18,WeatherDisplay:10.37,2013-06-08 16:03:00,
2013-06-08 12:08:00,69.4,61.9,29.84,West,265,0.6,4.6,77,0.00,CLR,,0.18,WeatherDisplay:10.37,2013-06-08 16:08:00,
2013-06-08 12:13:00,70.1,61.4,29.84,SW,224,3.0,7.0,74,0.00,CLR,,0.18,WeatherDisplay:10.37,2013-06-08 16:13:00,
2013-06-08 12:18:00,70.4,61.3,29.84,WSW,241,4.3,8.1,73,0.00,CLR,,0.18,WeatherDisplay:10.37,2013-06-08 16:18:00,
2013-06-08 12:23:00,70.8,61.3,29.84,SSW,212,2.2,3.5,72,0.00,CLR,,0.18,WeatherDisplay:10.37,2013-06-08 16:23:00,
2013-06-08 12:28:00,70.9,62.2,29.84,West,260,1.1,3.0,74,0.00,CLR,,0.18,WeatherDisplay:10.37,2013-06-08 16:28:00,
2013-06-08 12:33:00,70.8,61.3,29.84,West,264,2.3,4.6,72,0.00,CLR,,0.18,WeatherDisplay:10.37,2013-06-08 16:33:00,
2013-06-08 12:38:00,70.6,61.1,29.84,West,263,0.0,2.3,72,0.00,CLR,,0.18,WeatherDisplay:10.37,2013-06-08 16:38:00,
2013-06-08 12:43:00,70.9,60.2,29.85,WNW,298,1.7,2.3,69,0.00,CLR,,0.18,WeatherDisplay:10.37,2013-06-08 16:43:00,
2013-06-08 12:48:00,71.3,61.8,29.85,WNW,289,0.8,2.3,72,0.00,CLR,,0.18,WeatherDisplay:10.37,2013-06-08 16:48:00,
2013-06-08 12:53:00,71.5,61.6,29.85,WNW,301,0.1,2.0,71,0.00,CLR,,0.18,WeatherDisplay:10.37,2013-06-08 16:53:00,
2013-06-08 12:58:00,71.5,61.6,29.85,NW,311,4.5,6.9,71,0.00,CLR,,0.18,WeatherDisplay:10.37,2013-06-08 16:58:00,
2013-06-08 13:03:00,70.8,61.7,29.85,WNW,289,0.9,3.0,73,0.00,CLR,,0.18,WeatherDisplay:10.37,2013-06-08 17:03:00,
2013-06-08 13:08:00,70.4,61.3,29.85,NW,318,1.1,4.6,73,0.00,CLR,,0.18,WeatherDisplay:10.37,2013-06-08 17:08:00,
2013-06-08 13:13:00,70.3,61.2,29.85,NW,320,1.5,5.8,73,0.00,CLR,,0.18,WeatherDisplay:10.37,2013-06-08 17:13:00,
2013-06-08 13:18:00,70.3,61.2,29.85,WNW,294,0.0,0.0,73,0.00,CLR,,0.18,WeatherDisplay:10.37,2013-06-08 17:18:00,
2013-06-08 13:23:00,70.6,61.1,29.85,WNW,288,2.6,6.9,72,0.00,CLR,,0.18,WeatherDisplay:10.37,2013-06-08 17:23:00,
2013-06-08 13:28:00,70.6,61.1,29.85,WSW,244,0.9,3.5,72,0.00,CLR,,0.18,WeatherDisplay:10.37,2013-06-08 17:28:00,
2013-06-08 13:33:00,70.8,61.7,29.85,WSW,243,0.1,2.3,73,0.00,CLR,,0.18,WeatherDisplay:10.37,2013-06-08 17:33:00,
2013-06-08 13:39:00,70.8,61.3,29.86,SW,226,1.8,3.0,72,0.00,CLR,,0.18,WeatherDisplay:10.37,2013-06-08 17:39:00,
2013-06-08 13:44:00,70.9,61.8,29.85,West,260,1.1,4.0,73,0.00,CLR,,0.18,WeatherDisplay:10.37,2013-06-08 17:44:00,
2013-06-08 13:49:00,70.8,61.7,29.85,West,264,2.0,3.5,73,0.00,CLR,,0.18,WeatherDisplay:10.37,2013-06-08 17:49:00,
2013-06-08 13:54:00,70.8,61.7,29.85,West,280,0.3,5.8,73,0.00,CLR,,0.18,WeatherDisplay:10.37,2013-06-08 17:54:00,
2013-06-08 13:59:00,70.8,61.7,29.85,SW,227,0.7,3.5,73,0.00,CLR,,0.18,WeatherDisplay:10.37,2013-06-08 17:59:00,
2013-06-08 14:04:00,70.4,61.7,29.86,SSW,193,0.9,2.3,74,0.00,CLR,,0.18,WeatherDisplay:10.37,2013-06-08 18:04:00,
2013-06-08 14:09:00,70.1,61.0,29.86,SW,216,1.2,2.3,73,0.00,CLR,,0.18,WeatherDisplay:10.37,2013-06-08 18:09:00,
2013-06-08 14:14:00,69.9,61.2,29.86,WSW,250,2.5,3.5,74,0.00,CLR,,0.18,WeatherDisplay:10.37,2013-06-08 18:14:00,
2013-06-08 14:19:00,69.8,61.5,29.85,WSW,256,0.5,3.5,75,0.00,CLR,,0.18,WeatherDisplay:10.37,2013-06-08 18:19:00,
2013-06-08 14:24:00,69.8,61.9,29.85,West,274,1.1,2.3,76,0.00,CLR,,0.18,WeatherDisplay:10.37,2013-06-08 18:24:00,
2013-06-08 14:29:00,69.8,61.5,29.85,West,274,3.3,3.5,75,0.00,CLR,,0.18,WeatherDisplay:10.37,2013-06-08 18:29:00,
2013-06-08 14:34:00,69.6,61.3,29.86,WSW,243,1.3,3.5,75,0.00,CLR,,0.18,WeatherDisplay:10.37,2013-06-08 18:34:00,
2013-06-08 14:39:00,69.6,60.9,29.86,West,271,2.4,5.8,74,0.00,CLR,,0.18,WeatherDisplay:10.37,2013-06-08 18:39:00,
2013-06-08 14:44:00,69.6,60.9,29.86,WNW,298,0.8,3.5,74,0.00,CLR,,0.18,WeatherDisplay:10.37,2013-06-08 18:44:00,
2013-06-08 14:50:00,69.6,61.3,29.86,West,278,0.1,2.3,75,0.00,CLR,,0.18,WeatherDisplay:10.37,2013-06-08 18:50:00,
2013-06-08 14:55:00,69.9,61.6,29.86,West,280,0.5,1.2,75,0.00,CLR,,0.18,WeatherDisplay:10.37,2013-06-08 18:55:00,
2013-06-08 15:00:00,70.3,62.0,29.86,West,264,1.2,2.3,75,0.00,CLR,,0.18,WeatherDisplay:10.37,2013-06-08 19:00:00,
2013-06-08 15:05:00,70.3,61.2,29.86,West,260,2.2,3.5,73,0.00,CLR,,0.18,WeatherDisplay:10.37,2013-06-08 19:05:00,
2013-06-08 15:10:00,70.4,61.3,29.86,WNW,289,0.8,2.3,73,0.00,CLR,,0.18,WeatherDisplay:10.37,2013-06-08 19:10:00,
2013-06-08 15:15:00,70.3,61.2,29.85,WNW,295,2.2,4.6,73,0.00,CLR,,0.18,WeatherDisplay:10.37,2013-06-08 19:15:00,
2013-06-08 15:20:00,70.4,61.3,29.86,WSW,254,1.3,3.5,73,0.00,CLR,,0.18,WeatherDisplay:10.37,2013-06-08 19:20:00,
2013-06-08 15:25:00,70.8,61.7,29.86,SSW,208,1.9,8.1,73,0.00,CLR,,0.18,WeatherDisplay:10.37,2013-06-08 19:25:00,
2013-06-08 15:31:00,71.5,61.6,29.85,West,275,3.2,4.6,71,0.00,CLR,,0.18,WeatherDisplay:10.37,2013-06-08 19:31:00,
2013-06-08 15:36:00,71.5,61.6,29.85,SW,217,2.5,3.5,71,0.00,CLR,,0.18,WeatherDisplay:10.37,2013-06-08 19:36:00,
2013-06-08 15:41:00,71.8,62.3,29.85,West,272,3.5,5.8,72,0.00,CLR,,0.18,WeatherDisplay:10.37,2013-06-08 19:41:00,
2013-06-08 15:46:00,71.8,62.3,29.86,WNW,302,2.1,4.6,72,0.00,CLR,,0.18,WeatherDisplay:10.37,2013-06-08 19:46:00,
2013-06-08 15:51:00,71.6,61.7,29.86,West,280,1.9,6.9,71,0.00,CLR,,0.18,WeatherDisplay:10.37,2013-06-08 19:51:00,
2013-06-08 15:57:00,72.0,62.5,29.86,WNW,291,2.9,4.6,72,0.00,CLR,,0.18,WeatherDisplay:10.37,2013-06-08 19:57:00,
2013-06-08 16:02:00,72.3,62.4,29.86,NW,313,0.8,3.0,71,0.00,CLR,,0.18,WeatherDisplay:10.37,2013-06-08 20:02:00,
2013-06-08 16:07:00,72.5,63.0,29.86,NW,316,1.3,3.5,72,0.00,CLR,,0.18,WeatherDisplay:10.37,2013-06-08 20:07:00,
2013-06-08 16:12:00,72.7,62.3,29.86,WNW,296,4.8,11.5,70,0.00,CLR,,0.18,WeatherDisplay:10.37,2013-06-08 20:12:00,
2013-06-08 16:17:00,72.7,61.5,29.86,WNW,285,2.2,5.8,68,0.00,CLR,,0.18,WeatherDisplay:10.37,2013-06-08 20:17:00,
2013-06-08 16:22:00,72.5,62.2,29.87,SSW,209,3.2,5.8,70,0.00,CLR,,0.18,WeatherDisplay:10.37,2013-06-08 20:22:00,
2013-06-08 16:27:00,72.7,62.3,29.87,SW,236,2.0,5.8,70,0.00,CLR,,0.18,WeatherDisplay:10.37,2013-06-08 20:27:00,
2013-06-08 16:32:00,72.8,62.4,29.87,SSW,210,1.3,4.6,70,0.00,CLR,,0.18,WeatherDisplay:10.37,2013-06-08 20:32:00,
2013-06-08 16:38:00,73.3,63.7,29.87,SSW,212,1.5,5.8,72,0.00,CLR,,0.18,WeatherDisplay:10.37,2013-06-08 20:38:00,
2013-06-08 16:43:00,73.5,62.3,29.87,SW,220,2.5,5.8,68,0.00,CLR,,0.18,WeatherDisplay:10.37,2013-06-08 20:43:00,
2013-06-08 16:48:00,73.7,62.1,29.87,WSW,258,1.5,4.6,67,0.00,CLR,,0.18,WeatherDisplay:10.37,2013-06-08 20:48:00,
2013-06-08 16:53:00,73.9,61.8,29.87,WNW,285,2.0,4.6,66,0.00,CLR,,0.18,WeatherDisplay:10.37,2013-06-08 20:53:00,
2013-06-08 16:58:00,73.5,61.9,29.87,NW,304,1.9,6.9,67,0.00,CLR,,0.18,WeatherDisplay:10.37,2013-06-08 20:58:00,
2013-06-08 17:03:00,73.0,62.2,29.88,WNW,282,0.0,2.3,69,0.00,CLR,,0.18,WeatherDisplay:10.37,2013-06-08 21:03:00,
2013-06-08 17:08:00,72.8,62.0,29.88,NW,318,0.7,3.5,69,0.00,CLR,,0.18,WeatherDisplay:10.37,2013-06-08 21:08:00,
2013-06-08 17:14:00,72.8,62.0,29.88,NW,319,0.0,0.0,69,0.00,CLR,,0.18,WeatherDisplay:10.37,2013-06-08 21:14:00,
2013-06-08 17:19:00,73.2,62.8,29.88,West,268,0.0,0.0,70,0.00,CLR,,0.18,WeatherDisplay:10.37,2013-06-08 21:19:00,
2013-06-08 17:24:00,73.3,62.5,29.88,West,270,0.0,0.0,69,0.00,CLR,,0.18,WeatherDisplay:10.37,2013-06-08 21:24:00,
2013-06-08 17:29:00,73.3,61.7,29.88,West,272,0.0,0.0,67,0.00,CLR,,0.18,WeatherDisplay:10.37,2013-06-08 21:29:00,
2013-06-08 17:34:00,73.5,62.3,29.88,NW,305,0.0,0.0,68,0.00,CLR,,0.18,WeatherDisplay:10.37,2013-06-08 21:34:00,
2013-06-08 17:40:00,73.9,62.7,29.88,WNW,302,0.0,0.0,68,0.00,CLR,,0.18,WeatherDisplay:10.37,2013-06-08 21:40:00,
2013-06-08 17:45:00,74.6,62.9,29.88,WNW,302,0.0,0.0,67,0.00,CLR,,0.18,WeatherDisplay:10.37,2013-06-08 21:45:00,
2013-06-08 17:50:00,74.7,62.1,29.88,WNW,288,3.0,5.8,65,0.00,CLR,,0.18,WeatherDisplay:10.37,2013-06-08 21:50:00,
2013-06-08 17:55:00,74.2,61.7,29.88,WNW,296,2.6,4.6,65,0.00,CLR,,0.18,WeatherDisplay:10.37,2013-06-08 21:55:00,
2013-06-08 18:00:00,74.0,61.5,29.88,WSW,247,1.0,3.5,65,0.00,CLR,,0.18,WeatherDisplay:10.37,2013-06-08 22:00:00,
2013-06-08 18:05:00,74.0,61.5,29.89,SW,234,1.9,6.9,65,0.00,CLR,,0.18,WeatherDisplay:10.37,2013-06-08 22:05:00,
2013-06-08 18:11:00,73.7,61.2,29.89,WNW,287,2.4,4.6,65,0.00,CLR,,0.18,WeatherDisplay:10.37,2013-06-08 22:11:00,
2013-06-08 18:16:00,73.5,62.3,29.89,WNW,296,0.0,0.0,68,0.00,CLR,,0.18,WeatherDisplay:10.37,2013-06-08 22:16:00,
2013-06-08 18:21:00,73.3,62.1,29.89,WNW,298,0.0,0.0,68,0.00,CLR,,0.18,WeatherDisplay:10.37,2013-06-08 22:21:00,
2013-06-08 18:27:00,73.2,62.0,29.89,NW,308,0.6,2.3,68,0.00,CLR,,0.18,WeatherDisplay:10.37,2013-06-08 22:27:00,
2013-06-08 18:32:00,73.0,62.2,29.89,NW,318,0.0,1.2,69,0.00,CLR,,0.18,WeatherDisplay:10.37,2013-06-08 22:32:00,
2013-06-08 18:37:00,73.0,61.4,29.90,NW,304,1.5,3.5,67,0.00,CLR,,0.18,WeatherDisplay:10.37,2013-06-08 22:37:00,
2013-06-08 18:42:00,73.5,61.4,29.89,NW,311,2.2,4.6,66,0.00,CLR,,0.18,WeatherDisplay:10.37,2013-06-08 22:42:00,
2013-06-08 18:47:00,73.9,61.4,29.89,WNW,285,2.1,3.5,65,0.00,CLR,,0.18,WeatherDisplay:10.37,2013-06-08 22:47:00,
2013-06-08 18:52:00,74.0,62.3,29.90,WNW,282,2.5,2.5,67,0.00,CLR,,0.18,WeatherDisplay:10.37,2013-06-08 22:52:00,
2013-06-08 18:57:00,74.2,62.1,29.90,WNW,287,0.0,0.0,66,0.00,CLR,,0.18,WeatherDisplay:10.37,2013-06-08 22:57:00,
2013-06-08 19:03:00,74.0,61.9,29.90,WNW,299,0.0,1.0,66,0.00,CLR,,0.18,WeatherDisplay:10.37,2013-06-08 23:03:00,
2013-06-08 19:08:00,73.3,61.7,29.90,WNW,296,0.0,0.0,67,0.00,CLR,,0.18,WeatherDisplay:10.37,2013-06-08 23:08:00,
2013-06-08 19:13:00,73.2,61.2,29.90,NW,315,0.5,1.0,66,0.00,CLR,,0.18,WeatherDisplay:10.37,2013-06-08 23:13:00,
2013-06-08 19:18:00,73.2,61.2,29.90,NW,311,0.9,2.3,66,0.00,CLR,,0.18,WeatherDisplay:10.37,2013-06-08 23:18:00,
2013-06-08 19:23:00,73.2,61.2,29.90,NW,311,0.0,0.0,66,0.00,CLR,,0.18,WeatherDisplay:10.37,2013-06-08 23:23:00,
2013-06-08 19:29:00,73.3,61.3,29.90,NW,311,0.0,0.0,66,0.00,CLR,,0.18,WeatherDisplay:10.37,2013-06-08 23:29:00,
2013-06-08 19:34:00,73.3,60.8,29.90,NW,311,0.0,0.0,65,0.00,CLR,,0.18,WeatherDisplay:10.37,2013-06-08 23:34:00,
2013-06-08 19:39:00,73.5,61.4,29.91,NW,311,0.0,0.0,66,0.00,CLR,,0.18,WeatherDisplay:10.37,2013-06-08 23:39:00,
2013-06-08 19:44:00,73.3,61.7,29.91,NW,311,0.0,0.0,67,0.00,CLR,,0.18,WeatherDisplay:10.37,2013-06-08 23:44:00,
2013-06-08 19:49:00,73.3,61.3,29.91,NW,311,0.0,0.0,66,0.00,CLR,,0.18,WeatherDisplay:10.37,2013-06-08 23:49:00,
2013-06-08 19:55:00,73.3,60.8,29.91,NW,311,0.0,0.0,65,0.00,CLR,,0.18,WeatherDisplay:10.37,2013-06-08 23:55:00,
2013-06-08 20:00:00,73.2,61.6,29.91,NW,311,0.0,0.0,67,0.00,CLR,,0.18,WeatherDisplay:10.37,2013-06-09 00:00:00,
2013-06-08 20:05:00,73.0,62.2,29.91,NW,311,0.0,0.0,69,0.00,CLR,,0.18,WeatherDisplay:10.37,2013-06-09 00:05:00,
2013-06-08 20:10:00,72.0,62.1,29.92,NW,311,0.0,0.0,71,0.00,CLR,,0.18,WeatherDisplay:10.37,2013-06-09 00:10:00,
2013-06-08 20:15:00,71.6,62.5,29.92,NW,311,0.0,0.0,73,0.00,CLR,,0.18,WeatherDisplay:10.37,2013-06-09 00:15:00,
2013-06-08 20:21:00,71.1,62.8,29.92,NW,311,0.0,0.0,75,0.00,CLR,,0.18,WeatherDisplay:10.37,2013-06-09 00:21:00,
2013-06-08 20:26:00,70.3,62.7,29.92,NW,311,0.0,0.0,77,0.00,CLR,,0.18,WeatherDisplay:10.37,2013-06-09 00:26:00,
2013-06-08 20:32:00,69.8,63.0,29.92,NW,311,0.0,0.0,79,0.00,CLR,,0.18,WeatherDisplay:10.37,2013-06-09 00:32:00,
2013-06-08 20:37:00,69.1,62.3,29.93,NW,311,0.0,0.0,79,0.00,CLR,,0.18,WeatherDisplay:10.37,2013-06-09 00:37:00,
2013-06-08 20:42:00,68.8,62.0,29.93,NW,311,0.0,0.0,79,0.00,CLR,,0.18,WeatherDisplay:10.37,2013-06-09 00:42:00,
2013-06-08 20:47:00,68.4,61.6,29.93,NW,311,0.0,0.0,79,0.00,CLR,,0.18,WeatherDisplay:10.37,2013-06-09 00:47:00,
2013-06-08 20:52:00,68.3,61.5,29.93,NW,311,0.0,0.0,79,0.00,CLR,,0.18,WeatherDisplay:10.37,2013-06-09 00:52:00,
2013-06-08 20:57:00,68.1,61.3,29.93,NW,311,0.0,0.0,79,0.00,CLR,,0.18,WeatherDisplay:10.37,2013-06-09 00:57:00,
2013-06-08 21:03:00,67.9,60.8,29.93,NW,311,0.0,0.0,78,0.00,CLR,,0.18,WeatherDisplay:10.37,2013-06-09 01:03:00,
2013-06-08 21:08:00,67.9,61.1,29.93,NW,311,0.0,0.0,79,0.00,CLR,,0.18,WeatherDisplay:10.37,2013-06-09 01:08:00,
2013-06-08 21:13:00,67.6,60.9,29.93,NW,311,0.0,0.0,79,0.00,CLR,,0.18,WeatherDisplay:10.37,2013-06-09 01:13:00,
2013-06-08 21:18:00,67.6,61.2,29.94,NW,311,0.0,0.0,80,0.00,CLR,,0.18,WeatherDisplay:10.37,2013-06-09 01:18:00,
2013-06-08 21:23:00,67.4,61.4,29.94,NW,311,0.0,0.0,81,0.00,CLR,,0.18,WeatherDisplay:10.37,2013-06-09 01:23:00,
2013-06-08 21:28:00,67.1,61.4,29.95,NW,311,0.0,0.0,82,0.00,CLR,,0.18,WeatherDisplay:10.37,2013-06-09 01:28:00,
2013-06-08 21:34:00,66.8,61.1,29.95,NW,311,0.0,0.0,82,0.00,CLR,,0.18,WeatherDisplay:10.37,2013-06-09 01:34:00,
2013-06-08 21:39:00,66.3,61.0,29.95,NW,311,0.0,0.0,83,0.00,CLR,,0.18,WeatherDisplay:10.37,2013-06-09 01:39:00,
2013-06-08 21:44:00,65.8,61.2,29.95,NW,311,0.0,0.0,85,0.00,CLR,,0.18,WeatherDisplay:10.37,2013-06-09 01:44:00,
2013-06-08 21:49:00,65.5,61.2,29.96,NW,311,0.0,0.0,86,0.00,CLR,,0.18,WeatherDisplay:10.37,2013-06-09 01:49:00,
2013-06-08 21:54:00,65.2,61.2,29.96,NW,311,0.0,0.0,87,0.00,CLR,,0.18,WeatherDisplay:10.37,2013-06-09 01:54:00,
2013-06-08 21:59:00,64.8,60.8,29.97,WNW,302,0.0,0.0,87,0.00,CLR,,0.18,WeatherDisplay:10.37,2013-06-09 01:59:00,
2013-06-08 22:04:00,64.8,60.5,29.97,WNW,302,0.0,0.0,86,0.00,CLR,,0.18,WeatherDisplay:10.37,2013-06-09 02:04:00,
2013-06-08 22:09:00,65.0,60.7,29.97,WNW,302,0.0,0.0,86,0.00,CLR,,0.18,WeatherDisplay:10.37,2013-06-09 02:09:00,
2013-06-08 22:14:00,64.8,60.8,29.97,WNW,299,0.0,0.0,87,0.00,CLR,,0.18,WeatherDisplay:10.37,2013-06-09 02:14:00,
2013-06-08 22:19:00,64.7,60.7,29.98,SW,215,0.0,0.0,87,0.00,CLR,,0.18,WeatherDisplay:10.37,2013-06-09 02:19:00,
2013-06-08 22:25:00,64.8,60.5,29.97,South,191,0.3,2.3,86,0.00,CLR,,0.18,WeatherDisplay:10.37,2013-06-09 02:25:00,
2013-06-08 22:30:00,65.0,60.4,29.98,SSW,198,0.4,1.2,85,0.00,CLR,,0.18,WeatherDisplay:10.37,2013-06-09 02:30:00,
2013-06-08 22:35:00,65.2,60.2,29.98,SSW,199,0.0,0.0,84,0.00,CLR,,0.18,WeatherDisplay:10.37,2013-06-09 02:35:00,
2013-06-08 22:40:00,65.0,60.0,29.98,SSW,200,0.0,0.0,84,0.00,CLR,,0.18,WeatherDisplay:10.37,2013-06-09 02:40:00,
2013-06-08 22:45:00,64.8,60.2,29.98,SSW,199,0.0,0.0,85,0.00,CLR,,0.18,WeatherDisplay:10.37,2013-06-09 02:45:00,
2013-06-08 22:50:00,64.7,60.1,29.98,SSW,202,0.0,0.0,85,0.00,CLR,,0.18,WeatherDisplay:10.37,2013-06-09 02:50:00,
2013-06-08 22:55:00,64.3,59.7,29.99,SSW,202,0.0,0.0,85,0.00,CLR,,0.18,WeatherDisplay:10.37,2013-06-09 02:55:00,
2013-06-08 23:00:00,64.2,59.9,29.99,SSW,202,0.0,0.0,86,0.00,CLR,,0.18,WeatherDisplay:10.37,2013-06-09 03:00:00,
2013-06-08 23:05:00,64.0,59.7,29.99,SSW,202,0.0,0.0,86,0.00,CLR,,0.18,WeatherDisplay:10.37,2013-06-09 03:05:00,
2013-06-08 23:10:00,63.7,59.8,29.99,SSW,203,0.0,0.0,87,0.00,CLR,,0.18,WeatherDisplay:10.37,2013-06-09 03:10:00,
2013-06-08 23:16:00,63.5,59.6,29.99,SSW,202,0.0,0.0,87,0.00,CLR,,0.18,WeatherDisplay:10.37,2013-06-09 03:16:00,
2013-06-08 23:21:00,63.2,59.3,29.99,SSW,202,0.0,0.0,87,0.00,CLR,,0.18,WeatherDisplay:10.37,2013-06-09 03:21:00,
2013-06-08 23:26:00,62.7,58.8,29.99,SSW,203,0.0,0.0,87,0.00,CLR,,0.18,WeatherDisplay:10.37,2013-06-09 03:26:00,
2013-06-08 23:31:00,62.6,58.7,30.00,SSW,203,0.0,0.0,87,0.00,CLR,,0.18,WeatherDisplay:10.37,2013-06-09 03:31:00,
2013-06-08 23:36:00,62.4,58.5,30.00,SSW,203,0.0,0.0,87,0.00,CLR,,0.18,WeatherDisplay:10.37,2013-06-09 03:36:00,
2013-06-08 23:41:00,62.3,58.4,30.00,SSW,203,0.0,0.0,87,0.00,CLR,,0.18,WeatherDisplay:10.37,2013-06-09 03:41:00,
2013-06-08 23:46:00,62.1,58.2,30.00,SSW,203,0.0,0.0,87,0.00,CLR,,0.18,WeatherDisplay:10.37,2013-06-09 03:46:00,
2013-06-08 23:51:00,62.1,58.2,30.00,SSW,203,0.0,0.0,87,0.00,CLR,,0.18,WeatherDisplay:10.37,2013-06-09 03:51:00,
2013-06-08 23:56:00,62.1,58.2,30.00,SSW,202,0.0,0.0,87,0.00,CLR,,0.18,WeatherDisplay:10.37,2013-06-09 03:56:00,